sensor_id;sensor_type;location;lat;lon;timestamp;P1;durP1;ratioP1;P2;durP2;ratioP2
74363;SDS011;62797;49.740;10.154;2022-12-07T00:00:38;18.90;;;10.67;;
74363;SDS011;62797;49.740;10.154;2022-12-07T00:03:04;21.93;;;10.93;;
74363;SDS011;62797;49.740;10.154;2022-12-07T00:05:29;26.87;;;13.47;;
74363;SDS011;62797;49.740;10.154;2022-12-07T00:07:55;22.55;;;12.18;;
74363;SDS011;62797;49.740;10.154;2022-12-07T00:10:21;21.10;;;10.93;;
74363;SDS011;62797;49.740;10.154;2022-12-07T00:12:46;19.67;;;10.47;;
74363;SDS011;62797;49.740;10.154;2022-12-07T00:15:12;20.77;;;11.40;;
74363;SDS011;62797;49.740;10.154;2022-12-07T00:17:37;22.40;;;11.10;;
74363;SDS011;62797;49.740;10.154;2022-12-07T00:20:03;19.83;;;10.87;;
74363;SDS011;62797;49.740;10.154;2022-12-07T00:22:29;21.08;;;10.40;;
74363;SDS011;62797;49.740;10.154;2022-12-07T00:24:55;29.35;;;11.80;;
74363;SDS011;62797;49.740;10.154;2022-12-07T00:27:20;20.87;;;9.83;;
74363;SDS011;62797;49.740;10.154;2022-12-07T00:29:46;23.37;;;12.23;;
74363;SDS011;62797;49.740;10.154;2022-12-07T00:32:11;21.83;;;11.40;;
74363;SDS011;62797;49.740;10.154;2022-12-07T00:34:37;23.50;;;12.43;;
74363;SDS011;62797;49.740;10.154;2022-12-07T00:37:02;22.03;;;11.53;;
74363;SDS011;62797;49.740;10.154;2022-12-07T00:39:29;27.13;;;13.07;;
74363;SDS011;62797;49.740;10.154;2022-12-07T00:41:55;19.20;;;10.90;;
74363;SDS011;62797;49.740;10.154;2022-12-07T00:44:20;24.17;;;11.17;;
74363;SDS011;62797;49.740;10.154;2022-12-07T00:46:46;24.57;;;12.30;;
74363;SDS011;62797;49.740;10.154;2022-12-07T00:49:11;23.03;;;12.67;;
74363;SDS011;62797;49.740;10.154;2022-12-07T00:51:37;25.13;;;12.37;;
74363;SDS011;62797;49.740;10.154;2022-12-07T00:54:03;24.75;;;11.63;;
74363;SDS011;62797;49.740;10.154;2022-12-07T00:56:29;19.05;;;10.93;;
74363;SDS011;62797;49.740;10.154;2022-12-07T00:58:59;27.67;;;13.18;;
74363;SDS011;62797;49.740;10.154;2022-12-07T01:01:26;23.13;;;11.40;;
74363;SDS011;62797;49.740;10.154;2022-12-07T01:03:54;23.80;;;11.90;;
74363;SDS011;62797;49.740;10.154;2022-12-07T01:06:20;24.15;;;12.07;;
74363;SDS011;62797;49.740;10.154;2022-12-07T01:08:48;27.05;;;12.20;;
74363;SDS011;62797;49.740;10.154;2022-12-07T01:11:15;21.88;;;11.40;;
74363;SDS011;62797;49.740;10.154;2022-12-07T01:13:42;24.63;;;11.82;;
74363;SDS011;62797;49.740;10.154;2022-12-07T01:16:09;25.10;;;11.80;;
74363;SDS011;62797;49.740;10.154;2022-12-07T01:18:37;23.10;;;11.75;;
74363;SDS011;62797;49.740;10.154;2022-12-07T01:21:11;22.48;;;11.35;;
74363;SDS011;62797;49.740;10.154;2022-12-07T01:23:42;22.77;;;11.00;;
74363;SDS011;62797;49.740;10.154;2022-12-07T01:26:10;23.95;;;12.35;;
74363;SDS011;62797;49.740;10.154;2022-12-07T01:28:37;21.90;;;11.27;;
74363;SDS011;62797;49.740;10.154;2022-12-07T01:31:03;24.58;;;12.27;;
74363;SDS011;62797;49.740;10.154;2022-12-07T01:36:06;25.45;;;13.05;;
74363;SDS011;62797;49.740;10.154;2022-12-07T01:38:37;26.42;;;13.73;;
74363;SDS011;62797;49.740;10.154;2022-12-07T01:41:03;24.70;;;11.45;;
74363;SDS011;62797;49.740;10.154;2022-12-07T01:43:29;27.67;;;14.18;;
74363;SDS011;62797;49.740;10.154;2022-12-07T01:45:57;28.52;;;12.52;;
74363;SDS011;62797;49.740;10.154;2022-12-07T01:48:31;23.67;;;11.05;;
74363;SDS011;62797;49.740;10.154;2022-12-07T01:51:10;24.63;;;11.25;;
74363;SDS011;62797;49.740;10.154;2022-12-07T01:53:39;26.63;;;12.48;;
74363;SDS011;62797;49.740;10.154;2022-12-07T01:56:11;27.35;;;11.95;;
74363;SDS011;62797;49.740;10.154;2022-12-07T01:58:42;26.23;;;13.00;;
74363;SDS011;62797;49.740;10.154;2022-12-07T02:01:08;26.98;;;12.75;;
74363;SDS011;62797;49.740;10.154;2022-12-07T02:03:38;25.87;;;14.10;;
74363;SDS011;62797;49.740;10.154;2022-12-07T02:06:05;28.00;;;12.40;;
74363;SDS011;62797;49.740;10.154;2022-12-07T02:08:32;25.35;;;12.95;;
74363;SDS011;62797;49.740;10.154;2022-12-07T02:10:58;33.05;;;13.88;;
74363;SDS011;62797;49.740;10.154;2022-12-07T02:13:27;22.85;;;12.50;;
74363;SDS011;62797;49.740;10.154;2022-12-07T02:16:08;24.65;;;11.07;;
74363;SDS011;62797;49.740;10.154;2022-12-07T02:24:08;24.70;;;11.40;;
74363;SDS011;62797;49.740;10.154;2022-12-07T02:30:23;23.00;;;11.45;;
74363;SDS011;62797;49.740;10.154;2022-12-07T02:35:41;22.02;;;11.73;;
74363;SDS011;62797;49.740;10.154;2022-12-07T02:38:14;25.30;;;12.00;;
74363;SDS011;62797;49.740;10.154;2022-12-07T02:43:23;25.23;;;10.98;;
74363;SDS011;62797;49.740;10.154;2022-12-07T02:48:21;30.65;;;13.70;;
74363;SDS011;62797;49.740;10.154;2022-12-07T02:50:50;30.00;;;13.50;;
74363;SDS011;62797;49.740;10.154;2022-12-07T02:53:34;26.95;;;13.75;;
74363;SDS011;62797;49.740;10.154;2022-12-07T02:56:09;27.35;;;12.10;;
74363;SDS011;62797;49.740;10.154;2022-12-07T02:58:51;21.10;;;8.77;;
74363;SDS011;62797;49.740;10.154;2022-12-07T03:07:16;26.90;;;13.52;;
74363;SDS011;62797;49.740;10.154;2022-12-07T03:12:35;24.80;;;12.75;;
74363;SDS011;62797;49.740;10.154;2022-12-07T03:15:08;27.00;;;12.13;;
74363;SDS011;62797;49.740;10.154;2022-12-07T03:17:39;25.73;;;13.77;;
74363;SDS011;62797;49.740;10.154;2022-12-07T03:20:09;28.70;;;12.32;;
74363;SDS011;62797;49.740;10.154;2022-12-07T03:22:38;28.73;;;13.55;;
74363;SDS011;62797;49.740;10.154;2022-12-07T03:25:07;26.85;;;12.65;;
74363;SDS011;62797;49.740;10.154;2022-12-07T03:27:41;30.23;;;13.35;;
74363;SDS011;62797;49.740;10.154;2022-12-07T03:30:15;32.60;;;14.98;;
74363;SDS011;62797;49.740;10.154;2022-12-07T03:38:02;25.05;;;12.38;;
74363;SDS011;62797;49.740;10.154;2022-12-07T03:40:42;28.33;;;13.57;;
74363;SDS011;62797;49.740;10.154;2022-12-07T03:43:12;28.17;;;13.63;;
74363;SDS011;62797;49.740;10.154;2022-12-07T03:45:41;29.48;;;12.18;;
74363;SDS011;62797;49.740;10.154;2022-12-07T03:50:58;26.55;;;12.27;;
74363;SDS011;62797;49.740;10.154;2022-12-07T03:53:48;28.80;;;13.32;;
74363;SDS011;62797;49.740;10.154;2022-12-07T03:56:23;27.38;;;14.02;;
74363;SDS011;62797;49.740;10.154;2022-12-07T03:58:50;29.73;;;14.45;;
74363;SDS011;62797;49.740;10.154;2022-12-07T04:01:17;29.98;;;13.73;;
74363;SDS011;62797;49.740;10.154;2022-12-07T04:03:43;29.98;;;12.73;;
74363;SDS011;62797;49.740;10.154;2022-12-07T04:06:09;26.10;;;14.07;;
74363;SDS011;62797;49.740;10.154;2022-12-07T04:08:34;29.90;;;14.48;;
74363;SDS011;62797;49.740;10.154;2022-12-07T04:11:00;24.90;;;12.97;;
74363;SDS011;62797;49.740;10.154;2022-12-07T04:13:26;31.80;;;13.05;;
74363;SDS011;62797;49.740;10.154;2022-12-07T04:15:52;31.27;;;13.68;;
74363;SDS011;62797;49.740;10.154;2022-12-07T04:18:17;26.70;;;13.57;;
74363;SDS011;62797;49.740;10.154;2022-12-07T04:20:43;31.75;;;13.38;;
74363;SDS011;62797;49.740;10.154;2022-12-07T04:23:10;27.20;;;13.00;;
74363;SDS011;62797;49.740;10.154;2022-12-07T04:25:35;28.33;;;13.23;;
74363;SDS011;62797;49.740;10.154;2022-12-07T04:28:01;29.17;;;12.60;;
74363;SDS011;62797;49.740;10.154;2022-12-07T04:30:26;31.37;;;13.53;;
74363;SDS011;62797;49.740;10.154;2022-12-07T04:32:52;25.08;;;12.45;;
74363;SDS011;62797;49.740;10.154;2022-12-07T04:35:18;32.20;;;14.63;;
74363;SDS011;62797;49.740;10.154;2022-12-07T04:37:43;27.07;;;13.47;;
74363;SDS011;62797;49.740;10.154;2022-12-07T04:40:09;34.03;;;14.00;;
74363;SDS011;62797;49.740;10.154;2022-12-07T04:42:36;27.20;;;12.77;;
74363;SDS011;62797;49.740;10.154;2022-12-07T04:45:02;26.65;;;13.00;;
74363;SDS011;62797;49.740;10.154;2022-12-07T04:47:28;27.50;;;12.90;;
74363;SDS011;62797;49.740;10.154;2022-12-07T04:49:53;30.43;;;14.30;;
74363;SDS011;62797;49.740;10.154;2022-12-07T04:52:19;25.70;;;12.53;;
74363;SDS011;62797;49.740;10.154;2022-12-07T04:54:44;25.33;;;12.30;;
74363;SDS011;62797;49.740;10.154;2022-12-07T04:57:10;25.43;;;12.87;;
74363;SDS011;62797;49.740;10.154;2022-12-07T04:59:35;25.83;;;13.07;;
74363;SDS011;62797;49.740;10.154;2022-12-07T05:02:01;28.97;;;13.73;;
74363;SDS011;62797;49.740;10.154;2022-12-07T05:04:27;20.57;;;10.83;;
74363;SDS011;62797;49.740;10.154;2022-12-07T05:06:52;28.20;;;11.57;;
74363;SDS011;62797;49.740;10.154;2022-12-07T05:09:18;26.43;;;13.07;;
74363;SDS011;62797;49.740;10.154;2022-12-07T05:11:43;26.77;;;12.07;;
74363;SDS011;62797;49.740;10.154;2022-12-07T05:14:13;26.67;;;13.50;;
74363;SDS011;62797;49.740;10.154;2022-12-07T05:16:42;26.50;;;12.57;;
74363;SDS011;62797;49.740;10.154;2022-12-07T05:19:09;27.58;;;13.82;;
74363;SDS011;62797;49.740;10.154;2022-12-07T05:21:35;26.63;;;12.95;;
74363;SDS011;62797;49.740;10.154;2022-12-07T05:24:01;27.98;;;12.98;;
74363;SDS011;62797;49.740;10.154;2022-12-07T05:26:27;31.40;;;12.27;;
74363;SDS011;62797;49.740;10.154;2022-12-07T05:28:54;23.92;;;10.90;;
74363;SDS011;62797;49.740;10.154;2022-12-07T05:31:20;25.88;;;12.27;;
74363;SDS011;62797;49.740;10.154;2022-12-07T05:33:46;27.35;;;13.35;;
74363;SDS011;62797;49.740;10.154;2022-12-07T05:36:12;37.30;;;13.73;;
74363;SDS011;62797;49.740;10.154;2022-12-07T05:38:38;26.52;;;10.93;;
74363;SDS011;62797;49.740;10.154;2022-12-07T05:41:05;23.03;;;12.20;;
74363;SDS011;62797;49.740;10.154;2022-12-07T05:43:32;33.65;;;14.23;;
74363;SDS011;62797;49.740;10.154;2022-12-07T05:45:58;29.60;;;13.10;;
74363;SDS011;62797;49.740;10.154;2022-12-07T05:48:24;24.50;;;12.02;;
74363;SDS011;62797;49.740;10.154;2022-12-07T05:53:16;23.25;;;11.57;;
74363;SDS011;62797;49.740;10.154;2022-12-07T05:55:42;27.25;;;11.45;;
74363;SDS011;62797;49.740;10.154;2022-12-07T05:58:08;25.75;;;12.23;;
74363;SDS011;62797;49.740;10.154;2022-12-07T06:00:55;26.17;;;12.35;;
74363;SDS011;62797;49.740;10.154;2022-12-07T06:03:21;25.65;;;12.68;;
74363;SDS011;62797;49.740;10.154;2022-12-07T06:05:47;26.67;;;12.80;;
74363;SDS011;62797;49.740;10.154;2022-12-07T06:08:12;23.30;;;12.65;;
74363;SDS011;62797;49.740;10.154;2022-12-07T06:10:39;30.17;;;12.70;;
74363;SDS011;62797;49.740;10.154;2022-12-07T06:13:05;29.75;;;12.52;;
74363;SDS011;62797;49.740;10.154;2022-12-07T06:15:31;25.23;;;11.93;;
74363;SDS011;62797;49.740;10.154;2022-12-07T06:17:56;35.50;;;14.23;;
74363;SDS011;62797;49.740;10.154;2022-12-07T06:20:22;27.63;;;13.77;;
74363;SDS011;62797;49.740;10.154;2022-12-07T06:22:47;24.93;;;12.13;;
74363;SDS011;62797;49.740;10.154;2022-12-07T06:25:13;28.20;;;12.80;;
74363;SDS011;62797;49.740;10.154;2022-12-07T06:27:38;26.97;;;12.07;;
74363;SDS011;62797;49.740;10.154;2022-12-07T06:30:04;29.67;;;13.23;;
74363;SDS011;62797;49.740;10.154;2022-12-07T06:32:32;28.20;;;13.52;;
74363;SDS011;62797;49.740;10.154;2022-12-07T06:34:59;24.90;;;11.32;;
74363;SDS011;62797;49.740;10.154;2022-12-07T06:37:24;26.52;;;12.32;;
74363;SDS011;62797;49.740;10.154;2022-12-07T06:39:50;27.80;;;12.13;;
74363;SDS011;62797;49.740;10.154;2022-12-07T06:42:16;29.70;;;13.73;;
74363;SDS011;62797;49.740;10.154;2022-12-07T06:44:41;28.83;;;13.20;;
74363;SDS011;62797;49.740;10.154;2022-12-07T06:47:07;27.33;;;13.13;;
74363;SDS011;62797;49.740;10.154;2022-12-07T06:49:34;26.75;;;13.38;;
74363;SDS011;62797;49.740;10.154;2022-12-07T06:52:00;31.35;;;14.00;;
74363;SDS011;62797;49.740;10.154;2022-12-07T06:54:26;30.42;;;13.27;;
74363;SDS011;62797;49.740;10.154;2022-12-07T06:56:51;32.23;;;13.70;;
74363;SDS011;62797;49.740;10.154;2022-12-07T06:59:17;35.70;;;14.23;;
74363;SDS011;62797;49.740;10.154;2022-12-07T07:01:42;29.73;;;14.70;;
74363;SDS011;62797;49.740;10.154;2022-12-07T07:04:08;31.57;;;12.83;;
74363;SDS011;62797;49.740;10.154;2022-12-07T07:06:33;33.13;;;16.13;;
74363;SDS011;62797;49.740;10.154;2022-12-07T07:08:59;29.97;;;13.03;;
74363;SDS011;62797;49.740;10.154;2022-12-07T07:11:24;30.17;;;13.43;;
74363;SDS011;62797;49.740;10.154;2022-12-07T07:13:50;35.17;;;15.10;;
74363;SDS011;62797;49.740;10.154;2022-12-07T07:16:15;32.10;;;13.90;;
74363;SDS011;62797;49.740;10.154;2022-12-07T07:18:42;33.63;;;14.90;;
74363;SDS011;62797;49.740;10.154;2022-12-07T07:21:08;29.30;;;13.23;;
74363;SDS011;62797;49.740;10.154;2022-12-07T07:23:34;33.27;;;13.93;;
74363;SDS011;62797;49.740;10.154;2022-12-07T07:25:59;35.03;;;14.03;;
74363;SDS011;62797;49.740;10.154;2022-12-07T07:28:25;35.83;;;15.80;;
74363;SDS011;62797;49.740;10.154;2022-12-07T07:30:50;29.53;;;12.93;;
74363;SDS011;62797;49.740;10.154;2022-12-07T07:33:16;28.57;;;13.13;;
74363;SDS011;62797;49.740;10.154;2022-12-07T07:35:41;35.03;;;14.00;;
74363;SDS011;62797;49.740;10.154;2022-12-07T07:38:07;30.55;;;14.43;;
74363;SDS011;62797;49.740;10.154;2022-12-07T07:40:33;34.17;;;14.90;;
74363;SDS011;62797;49.740;10.154;2022-12-07T07:42:59;29.48;;;13.63;;
74363;SDS011;62797;49.740;10.154;2022-12-07T07:45:25;28.23;;;13.20;;
74363;SDS011;62797;49.740;10.154;2022-12-07T07:47:51;34.65;;;16.52;;
74363;SDS011;62797;49.740;10.154;2022-12-07T07:50:17;33.08;;;14.88;;
74363;SDS011;62797;49.740;10.154;2022-12-07T07:52:44;36.22;;;16.15;;
74363;SDS011;62797;49.740;10.154;2022-12-07T07:55:09;35.45;;;16.00;;
74363;SDS011;62797;49.740;10.154;2022-12-07T07:57:36;26.15;;;13.30;;
74363;SDS011;62797;49.740;10.154;2022-12-07T08:00:20;30.92;;;13.95;;
74363;SDS011;62797;49.740;10.154;2022-12-07T08:02:46;29.63;;;13.23;;
74363;SDS011;62797;49.740;10.154;2022-12-07T08:05:12;33.40;;;13.90;;
74363;SDS011;62797;49.740;10.154;2022-12-07T08:07:38;34.30;;;14.23;;
74363;SDS011;62797;49.740;10.154;2022-12-07T08:10:05;38.90;;;15.82;;
74363;SDS011;62797;49.740;10.154;2022-12-07T08:12:34;31.58;;;13.82;;
74363;SDS011;62797;49.740;10.154;2022-12-07T08:15:01;26.92;;;11.95;;
74363;SDS011;62797;49.740;10.154;2022-12-07T08:17:27;26.93;;;12.33;;
74363;SDS011;62797;49.740;10.154;2022-12-07T08:19:52;26.33;;;13.57;;
74363;SDS011;62797;49.740;10.154;2022-12-07T08:22:18;27.10;;;13.30;;
74363;SDS011;62797;49.740;10.154;2022-12-07T08:24:44;27.75;;;13.30;;
74363;SDS011;62797;49.740;10.154;2022-12-07T08:27:09;26.10;;;12.90;;
74363;SDS011;62797;49.740;10.154;2022-12-07T08:29:35;28.83;;;13.67;;
74363;SDS011;62797;49.740;10.154;2022-12-07T08:32:01;30.67;;;13.52;;
74363;SDS011;62797;49.740;10.154;2022-12-07T08:34:26;28.77;;;13.33;;
74363;SDS011;62797;49.740;10.154;2022-12-07T08:36:52;37.67;;;17.17;;
74363;SDS011;62797;49.740;10.154;2022-12-07T08:39:17;30.30;;;13.67;;
74363;SDS011;62797;49.740;10.154;2022-12-07T08:41:43;27.13;;;12.73;;
74363;SDS011;62797;49.740;10.154;2022-12-07T08:44:08;26.83;;;12.67;;
74363;SDS011;62797;49.740;10.154;2022-12-07T08:46:35;27.00;;;12.80;;
74363;SDS011;62797;49.740;10.154;2022-12-07T08:49:16;29.80;;;12.82;;
74363;SDS011;62797;49.740;10.154;2022-12-07T08:51:45;27.25;;;12.35;;
74363;SDS011;62797;49.740;10.154;2022-12-07T08:54:11;27.23;;;12.75;;
74363;SDS011;62797;49.740;10.154;2022-12-07T08:56:39;27.38;;;13.20;;
74363;SDS011;62797;49.740;10.154;2022-12-07T08:59:06;26.27;;;13.25;;
74363;SDS011;62797;49.740;10.154;2022-12-07T09:01:32;23.92;;;12.13;;
74363;SDS011;62797;49.740;10.154;2022-12-07T09:03:58;23.25;;;12.88;;
74363;SDS011;62797;49.740;10.154;2022-12-07T09:06:23;25.30;;;12.27;;
74363;SDS011;62797;49.740;10.154;2022-12-07T09:08:50;31.42;;;12.45;;
74363;SDS011;62797;49.740;10.154;2022-12-07T09:11:21;27.73;;;13.07;;
74363;SDS011;62797;49.740;10.154;2022-12-07T09:13:46;22.40;;;11.43;;
74363;SDS011;62797;49.740;10.154;2022-12-07T09:16:12;25.77;;;11.40;;
74363;SDS011;62797;49.740;10.154;2022-12-07T09:18:38;25.00;;;12.17;;
74363;SDS011;62797;49.740;10.154;2022-12-07T09:21:04;20.50;;;10.40;;
74363;SDS011;62797;49.740;10.154;2022-12-07T09:23:29;19.52;;;9.70;;
74363;SDS011;62797;49.740;10.154;2022-12-07T09:25:58;23.03;;;10.47;;
74363;SDS011;62797;49.740;10.154;2022-12-07T09:28:25;24.15;;;11.70;;
74363;SDS011;62797;49.740;10.154;2022-12-07T09:30:51;24.43;;;12.60;;
74363;SDS011;62797;49.740;10.154;2022-12-07T09:33:16;24.77;;;10.20;;
74363;SDS011;62797;49.740;10.154;2022-12-07T09:35:49;30.70;;;11.77;;
74363;SDS011;62797;49.740;10.154;2022-12-07T09:38:15;23.75;;;11.52;;
74363;SDS011;62797;49.740;10.154;2022-12-07T09:40:42;20.75;;;10.70;;
74363;SDS011;62797;49.740;10.154;2022-12-07T09:43:14;24.50;;;10.32;;
74363;SDS011;62797;49.740;10.154;2022-12-07T09:45:45;25.92;;;11.55;;
74363;SDS011;62797;49.740;10.154;2022-12-07T09:48:17;23.73;;;10.90;;
74363;SDS011;62797;49.740;10.154;2022-12-07T09:50:45;26.42;;;12.10;;
74363;SDS011;62797;49.740;10.154;2022-12-07T09:55:52;31.52;;;13.93;;
74363;SDS011;62797;49.740;10.154;2022-12-07T09:58:20;21.95;;;10.52;;
74363;SDS011;62797;49.740;10.154;2022-12-07T10:00:48;21.27;;;11.25;;
74363;SDS011;62797;49.740;10.154;2022-12-07T10:03:15;28.25;;;13.02;;
74363;SDS011;62797;49.740;10.154;2022-12-07T10:05:45;22.50;;;11.10;;
74363;SDS011;62797;49.740;10.154;2022-12-07T10:08:13;24.17;;;12.02;;
74363;SDS011;62797;49.740;10.154;2022-12-07T10:10:42;24.27;;;12.25;;
74363;SDS011;62797;49.740;10.154;2022-12-07T10:13:19;29.42;;;13.82;;
74363;SDS011;62797;49.740;10.154;2022-12-07T10:18:17;24.73;;;12.02;;
74363;SDS011;62797;49.740;10.154;2022-12-07T10:20:46;22.50;;;11.43;;
74363;SDS011;62797;49.740;10.154;2022-12-07T10:23:17;21.95;;;11.05;;
74363;SDS011;62797;49.740;10.154;2022-12-07T10:25:43;22.67;;;12.30;;
74363;SDS011;62797;49.740;10.154;2022-12-07T10:28:11;18.10;;;10.65;;
74363;SDS011;62797;49.740;10.154;2022-12-07T10:30:50;21.73;;;9.35;;
74363;SDS011;62797;49.740;10.154;2022-12-07T10:33:34;23.42;;;12.27;;
74363;SDS011;62797;49.740;10.154;2022-12-07T10:36:15;22.42;;;10.80;;
74363;SDS011;62797;49.740;10.154;2022-12-07T10:38:48;29.77;;;12.77;;
74363;SDS011;62797;49.740;10.154;2022-12-07T10:41:16;21.65;;;11.57;;
74363;SDS011;62797;49.740;10.154;2022-12-07T10:43:48;19.95;;;10.68;;
74363;SDS011;62797;49.740;10.154;2022-12-07T10:49:38;30.00;;;14.68;;
74363;SDS011;62797;49.740;10.154;2022-12-07T10:52:30;25.23;;;12.30;;
74363;SDS011;62797;49.740;10.154;2022-12-07T10:57:42;37.15;;;13.35;;
74363;SDS011;62797;49.740;10.154;2022-12-07T11:00:21;29.98;;;11.20;;
74363;SDS011;62797;49.740;10.154;2022-12-07T11:03:16;21.02;;;9.38;;
74363;SDS011;62797;49.740;10.154;2022-12-07T11:05:53;27.52;;;11.15;;
74363;SDS011;62797;49.740;10.154;2022-12-07T11:08:44;20.95;;;11.68;;
74363;SDS011;62797;49.740;10.154;2022-12-07T11:11:21;21.88;;;10.13;;
74363;SDS011;62797;49.740;10.154;2022-12-07T11:14:01;20.33;;;9.45;;
74363;SDS011;62797;49.740;10.154;2022-12-07T11:16:52;20.15;;;9.32;;
74363;SDS011;62797;49.740;10.154;2022-12-07T11:22:13;17.85;;;9.18;;
74363;SDS011;62797;49.740;10.154;2022-12-07T11:28:00;18.30;;;10.57;;
74363;SDS011;62797;49.740;10.154;2022-12-07T11:39:11;16.55;;;9.35;;
74363;SDS011;62797;49.740;10.154;2022-12-07T11:41:46;15.73;;;9.15;;
74363;SDS011;62797;49.740;10.154;2022-12-07T11:44:49;16.15;;;8.50;;
74363;SDS011;62797;49.740;10.154;2022-12-07T11:47:22;15.02;;;7.90;;
74363;SDS011;62797;49.740;10.154;2022-12-07T11:49:58;14.50;;;7.78;;
74363;SDS011;62797;49.740;10.154;2022-12-07T11:52:43;18.02;;;9.48;;
74363;SDS011;62797;49.740;10.154;2022-12-07T11:55:21;17.70;;;8.98;;
74363;SDS011;62797;49.740;10.154;2022-12-07T11:57:58;21.70;;;10.02;;
74363;SDS011;62797;49.740;10.154;2022-12-07T12:00:38;19.45;;;9.90;;
74363;SDS011;62797;49.740;10.154;2022-12-07T12:03:10;13.68;;;8.82;;
74363;SDS011;62797;49.740;10.154;2022-12-07T12:05:40;20.85;;;9.80;;
74363;SDS011;62797;49.740;10.154;2022-12-07T12:10:55;20.65;;;10.82;;
74363;SDS011;62797;49.740;10.154;2022-12-07T12:19:33;13.93;;;7.45;;
74363;SDS011;62797;49.740;10.154;2022-12-07T12:24:43;15.07;;;6.97;;
74363;SDS011;62797;49.740;10.154;2022-12-07T12:27:18;16.75;;;6.90;;
74363;SDS011;62797;49.740;10.154;2022-12-07T12:29:55;16.30;;;6.82;;
74363;SDS011;62797;49.740;10.154;2022-12-07T12:32:28;13.10;;;6.60;;
74363;SDS011;62797;49.740;10.154;2022-12-07T12:40:50;13.40;;;5.72;;
74363;SDS011;62797;49.740;10.154;2022-12-07T12:51:43;15.40;;;6.43;;
74363;SDS011;62797;49.740;10.154;2022-12-07T13:34:04;19.80;;;9.35;;
74363;SDS011;62797;49.740;10.154;2022-12-07T13:36:49;11.48;;;6.53;;
74363;SDS011;62797;49.740;10.154;2022-12-07T13:39:18;12.50;;;5.78;;
74363;SDS011;62797;49.740;10.154;2022-12-07T13:41:43;12.30;;;6.32;;
74363;SDS011;62797;49.740;10.154;2022-12-07T13:44:13;14.77;;;7.07;;
74363;SDS011;62797;49.740;10.154;2022-12-07T13:46:43;16.88;;;8.50;;
74363;SDS011;62797;49.740;10.154;2022-12-07T13:49:23;15.02;;;6.45;;
74363;SDS011;62797;49.740;10.154;2022-12-07T13:51:50;15.45;;;7.88;;
74363;SDS011;62797;49.740;10.154;2022-12-07T13:56:42;15.68;;;8.02;;
74363;SDS011;62797;49.740;10.154;2022-12-07T13:59:18;17.42;;;7.00;;
74363;SDS011;62797;49.740;10.154;2022-12-07T14:01:47;14.98;;;7.55;;
74363;SDS011;62797;49.740;10.154;2022-12-07T14:04:30;18.60;;;8.07;;
74363;SDS011;62797;49.740;10.154;2022-12-07T14:06:56;16.35;;;8.63;;
74363;SDS011;62797;49.740;10.154;2022-12-07T14:09:23;23.00;;;11.35;;
74363;SDS011;62797;49.740;10.154;2022-12-07T14:11:51;17.77;;;9.00;;
74363;SDS011;62797;49.740;10.154;2022-12-07T14:14:23;11.18;;;7.93;;
74363;SDS011;62797;49.740;10.154;2022-12-07T14:16:56;13.82;;;7.70;;
74363;SDS011;62797;49.740;10.154;2022-12-07T14:22:33;24.27;;;11.23;;
74363;SDS011;62797;49.740;10.154;2022-12-07T14:27:39;18.75;;;9.45;;
74363;SDS011;62797;49.740;10.154;2022-12-07T14:30:15;25.23;;;10.05;;
74363;SDS011;62797;49.740;10.154;2022-12-07T14:32:41;16.63;;;7.93;;
74363;SDS011;62797;49.740;10.154;2022-12-07T14:35:09;18.42;;;10.25;;
74363;SDS011;62797;49.740;10.154;2022-12-07T14:37:36;15.68;;;7.85;;
74363;SDS011;62797;49.740;10.154;2022-12-07T14:40:03;12.60;;;7.28;;
74363;SDS011;62797;49.740;10.154;2022-12-07T14:42:30;15.77;;;7.85;;
74363;SDS011;62797;49.740;10.154;2022-12-07T14:44:57;14.10;;;7.15;;
74363;SDS011;62797;49.740;10.154;2022-12-07T14:47:24;15.65;;;8.10;;
74363;SDS011;62797;49.740;10.154;2022-12-07T14:49:51;19.67;;;9.25;;
74363;SDS011;62797;49.740;10.154;2022-12-07T14:52:24;14.50;;;8.10;;
74363;SDS011;62797;49.740;10.154;2022-12-07T14:54:54;14.38;;;8.52;;
74363;SDS011;62797;49.740;10.154;2022-12-07T14:57:20;14.70;;;7.87;;
74363;SDS011;62797;49.740;10.154;2022-12-07T14:59:46;15.83;;;8.27;;
74363;SDS011;62797;49.740;10.154;2022-12-07T15:02:12;14.00;;;7.70;;
74363;SDS011;62797;49.740;10.154;2022-12-07T15:04:39;15.88;;;8.70;;
74363;SDS011;62797;49.740;10.154;2022-12-07T15:07:06;19.17;;;9.30;;
74363;SDS011;62797;49.740;10.154;2022-12-07T15:09:39;14.73;;;7.50;;
74363;SDS011;62797;49.740;10.154;2022-12-07T15:12:05;13.50;;;8.00;;
74363;SDS011;62797;49.740;10.154;2022-12-07T15:14:30;22.87;;;10.33;;
74363;SDS011;62797;49.740;10.154;2022-12-07T15:16:56;26.70;;;11.73;;
74363;SDS011;62797;49.740;10.154;2022-12-07T15:19:22;24.30;;;10.77;;
74363;SDS011;62797;49.740;10.154;2022-12-07T15:21:50;18.50;;;9.43;;
74363;SDS011;62797;49.740;10.154;2022-12-07T15:24:16;18.42;;;9.38;;
74363;SDS011;62797;49.740;10.154;2022-12-07T15:26:42;17.93;;;9.73;;
74363;SDS011;62797;49.740;10.154;2022-12-07T15:29:08;25.85;;;10.93;;
74363;SDS011;62797;49.740;10.154;2022-12-07T15:31:35;22.98;;;10.10;;
74363;SDS011;62797;49.740;10.154;2022-12-07T15:34:00;19.40;;;8.65;;
74363;SDS011;62797;49.740;10.154;2022-12-07T15:36:27;17.83;;;9.85;;
74363;SDS011;62797;49.740;10.154;2022-12-07T15:38:55;18.10;;;10.77;;
74363;SDS011;62797;49.740;10.154;2022-12-07T15:41:20;21.27;;;13.15;;
74363;SDS011;62797;49.740;10.154;2022-12-07T15:43:46;22.92;;;12.57;;
74363;SDS011;62797;49.740;10.154;2022-12-07T15:46:31;23.27;;;11.93;;
74363;SDS011;62797;49.740;10.154;2022-12-07T15:48:58;22.13;;;11.48;;
74363;SDS011;62797;49.740;10.154;2022-12-07T15:51:24;24.17;;;12.10;;
74363;SDS011;62797;49.740;10.154;2022-12-07T15:53:49;38.42;;;14.52;;
74363;SDS011;62797;49.740;10.154;2022-12-07T15:56:15;30.60;;;12.85;;
74363;SDS011;62797;49.740;10.154;2022-12-07T15:58:41;16.13;;;8.90;;
74363;SDS011;62797;49.740;10.154;2022-12-07T16:01:10;13.13;;;8.03;;
74363;SDS011;62797;49.740;10.154;2022-12-07T16:03:36;15.98;;;8.18;;
74363;SDS011;62797;49.740;10.154;2022-12-07T16:06:02;19.00;;;10.27;;
74363;SDS011;62797;49.740;10.154;2022-12-07T16:08:27;18.37;;;9.13;;
74363;SDS011;62797;49.740;10.154;2022-12-07T16:10:53;25.47;;;8.70;;
74363;SDS011;62797;49.740;10.154;2022-12-07T16:13:18;15.10;;;9.57;;
74363;SDS011;62797;49.740;10.154;2022-12-07T16:15:44;16.43;;;10.30;;
74363;SDS011;62797;49.740;10.154;2022-12-07T16:18:10;22.87;;;11.43;;
74363;SDS011;62797;49.740;10.154;2022-12-07T16:20:35;22.07;;;12.30;;
74363;SDS011;62797;49.740;10.154;2022-12-07T16:23:01;24.23;;;12.47;;
74363;SDS011;62797;49.740;10.154;2022-12-07T16:25:27;20.25;;;11.38;;
74363;SDS011;62797;49.740;10.154;2022-12-07T16:27:52;27.02;;;14.20;;
74363;SDS011;62797;49.740;10.154;2022-12-07T16:30:18;22.40;;;10.77;;
74363;SDS011;62797;49.740;10.154;2022-12-07T16:32:44;17.52;;;10.02;;
74363;SDS011;62797;49.740;10.154;2022-12-07T16:35:10;22.33;;;11.23;;
74363;SDS011;62797;49.740;10.154;2022-12-07T16:37:36;20.75;;;11.43;;